createdAt,value
2018-07-14T00:00:20.210Z,2.33
2018-07-14T00:02:24.442Z,2.47
2018-07-14T00:04:28.925Z,2.40
2018-07-14T00:06:33.501Z,2.43
2018-07-14T00:08:40.290Z,2.40
2018-07-14T00:10:44.766Z,2.50
2018-07-14T00:12:49.216Z,2.60
2018-07-14T00:14:53.732Z,2.40
2018-07-14T00:16:58.177Z,2.30
2018-07-14T00:19:02.602Z,2.50
2018-07-14T00:21:06.835Z,2.10
2018-07-14T00:23:12.317Z,2.70
2018-07-14T00:25:20.919Z,2.65
2018-07-14T00:27:25.432Z,2.83
2018-07-14T00:29:29.972Z,2.60
2018-07-14T00:31:34.474Z,3.03
2018-07-14T00:33:39.015Z,2.42
2018-07-14T00:35:43.470Z,2.72
2018-07-14T00:37:47.966Z,2.50
2018-07-14T00:39:52.538Z,2.67
2018-07-14T00:41:57.063Z,2.37
2018-07-14T00:44:01.519Z,2.47
2018-07-14T00:46:06.184Z,2.70
2018-07-14T00:48:10.756Z,2.20
2018-07-14T00:50:15.252Z,2.33
2018-07-14T00:52:19.734Z,2.37
2018-07-14T00:54:24.195Z,2.83
2018-07-14T00:56:28.660Z,2.70
2018-07-14T00:58:33.103Z,2.57
2018-07-14T01:00:39.640Z,2.50
2018-07-14T01:02:47.385Z,2.05
2018-07-14T01:04:56.515Z,2.50
2018-07-14T01:07:03.099Z,2.50
2018-07-14T01:09:10.590Z,2.83
2018-07-14T01:11:17.122Z,2.57
2018-07-14T01:13:23.332Z,2.33
2018-07-14T01:15:31.864Z,2.45
2018-07-14T01:17:38.762Z,2.40
2018-07-14T01:19:46.518Z,2.58
2018-07-14T01:21:53.875Z,2.60
2018-07-14T01:24:01.196Z,2.95
2018-07-14T01:26:07.830Z,2.65
2018-07-14T01:28:15.101Z,2.77
2018-07-14T01:30:22.691Z,2.47
2018-07-14T01:32:28.436Z,2.70
2018-07-14T01:34:35.407Z,2.67
2018-07-14T01:36:42.854Z,2.83
2018-07-14T01:38:48.313Z,2.50
2018-07-14T01:40:56.017Z,2.65
2018-07-14T01:43:00.576Z,2.50
2018-07-14T01:45:05.147Z,2.47
2018-07-14T01:47:09.643Z,2.67
2018-07-14T01:49:13.773Z,2.67
2018-07-14T01:51:18.302Z,2.47
2018-07-14T01:53:26.823Z,2.47
2018-07-14T01:55:35.093Z,2.60
2018-07-14T01:57:42.247Z,2.67
2018-07-14T01:59:48.442Z,3.03
2018-07-14T02:01:56.392Z,2.85
2018-07-14T02:04:03.647Z,2.20
2018-07-14T02:06:11.272Z,2.77
2018-07-14T02:08:16.977Z,2.63
2018-07-14T02:10:23.269Z,2.85
2018-07-14T02:12:29.179Z,2.42
2018-07-14T02:14:37.254Z,2.57
2018-07-14T02:16:43.896Z,2.83
2018-07-14T02:18:51.554Z,2.60
2018-07-14T02:20:56.011Z,2.90
2018-07-14T02:23:00.479Z,2.97
2018-07-14T02:25:04.714Z,3.00
2018-07-14T02:27:09.226Z,2.60
2018-07-14T02:29:14.403Z,2.72
2018-07-14T02:31:18.874Z,2.90
2018-07-14T02:33:23.458Z,2.70
2018-07-14T02:35:27.888Z,2.75
2018-07-14T02:37:32.335Z,3.00
2018-07-14T02:39:36.996Z,2.60
2018-07-14T02:41:41.478Z,2.70
2018-07-14T02:43:46.079Z,2.92
2018-07-14T02:45:50.534Z,2.60
2018-07-14T02:47:55.063Z,2.43
2018-07-14T02:49:59.494Z,2.65
2018-07-14T02:52:04.151Z,2.67
2018-07-14T02:54:08.626Z,2.77
2018-07-14T02:56:13.198Z,2.70
2018-07-14T02:58:17.683Z,2.70
2018-07-14T03:00:22.151Z,2.92
2018-07-14T03:02:26.635Z,2.60
2018-07-14T03:04:31.141Z,2.80
2018-07-14T03:06:35.678Z,3.10
2018-07-14T03:08:40.103Z,2.72
2018-07-14T03:10:44.530Z,2.53
2018-07-14T03:12:49.036Z,3.03
2018-07-14T03:14:53.521Z,2.90
2018-07-14T03:16:58.003Z,2.73
2018-07-14T03:19:02.487Z,2.85
2018-07-14T03:21:07.214Z,2.90
2018-07-14T03:23:11.759Z,2.65
2018-07-14T03:25:16.266Z,2.50
2018-07-14T03:27:20.724Z,3.00
2018-07-14T03:29:25.219Z,2.77
2018-07-14T03:31:29.489Z,2.77
2018-07-14T03:33:33.929Z,2.80
2018-07-14T03:35:38.368Z,2.53
2018-07-14T03:37:42.926Z,2.87
2018-07-14T03:39:47.481Z,2.70
2018-07-14T03:41:52.151Z,2.67
2018-07-14T03:43:56.677Z,2.73
2018-07-14T03:46:01.117Z,2.90
2018-07-14T03:48:05.607Z,2.83
2018-07-14T03:50:10.090Z,3.33
2018-07-14T03:52:15.803Z,2.37
2018-07-14T03:54:21.837Z,2.80
2018-07-14T03:56:26.331Z,2.42
2018-07-14T03:58:30.818Z,3.10
2018-07-14T04:00:38.502Z,2.70
2018-07-14T04:02:44.893Z,2.85
2018-07-14T04:04:52.658Z,2.93
2018-07-14T04:06:58.810Z,2.83
2018-07-14T04:09:04.417Z,3.00
2018-07-14T04:11:11.322Z,2.70
2018-07-14T04:13:20.309Z,2.97
2018-07-14T04:15:25.950Z,2.80
2018-07-14T04:17:30.992Z,2.70
2018-07-14T04:19:39.405Z,3.10
2018-07-14T04:21:47.737Z,2.95
2018-07-14T04:23:54.855Z,2.77
2018-07-14T04:26:01.714Z,3.10
2018-07-14T04:28:07.365Z,2.62
2018-07-14T04:30:15.234Z,2.52
2018-07-14T04:32:19.445Z,2.80
2018-07-14T04:34:23.873Z,2.93
2018-07-14T04:36:28.374Z,2.90
2018-07-14T04:38:32.916Z,2.80
2018-07-14T04:40:37.358Z,2.93
2018-07-14T04:42:41.884Z,2.90
2018-07-14T04:44:46.554Z,3.22
2018-07-14T04:46:50.985Z,2.75
2018-07-14T04:48:55.449Z,3.00
2018-07-14T04:50:59.877Z,2.83
2018-07-14T04:53:04.368Z,3.20
2018-07-14T04:55:09.636Z,3.20
2018-07-14T04:57:14.145Z,3.27
2018-07-14T04:59:18.595Z,3.00
2018-07-14T05:01:23.030Z,3.03
2018-07-14T05:03:28.441Z,3.43
2018-07-14T05:05:32.903Z,3.08
2018-07-14T05:07:37.498Z,3.27
2018-07-14T05:09:41.952Z,3.55
2018-07-14T05:11:46.511Z,3.12
2018-07-14T05:13:50.970Z,3.40
2018-07-14T05:15:55.158Z,3.43
2018-07-14T05:17:59.626Z,3.60
2018-07-14T05:20:04.144Z,3.72
2018-07-14T05:22:08.574Z,4.10
2018-07-14T05:24:13.030Z,4.03
2018-07-14T05:26:17.578Z,3.77
2018-07-14T05:28:22.144Z,4.28
2018-07-14T05:30:26.641Z,4.35
2018-07-14T05:32:31.094Z,4.25
2018-07-14T05:34:35.628Z,4.60
2018-07-14T05:36:40.138Z,4.27
2018-07-14T05:38:44.671Z,4.40
2018-07-14T05:40:52.149Z,4.30
2018-07-14T05:42:57.457Z,4.30
2018-07-14T05:45:04.312Z,4.20
2018-07-14T05:47:08.743Z,4.83
2018-07-14T05:49:13.302Z,4.50
2018-07-14T05:51:17.986Z,4.55
2018-07-14T05:53:22.459Z,4.55
2018-07-14T05:55:27.278Z,4.37
2018-07-14T05:57:31.769Z,4.30
2018-07-14T05:59:36.271Z,4.07
2018-07-14T06:01:40.766Z,4.23
2018-07-14T06:03:45.175Z,4.47
2018-07-14T06:05:49.663Z,4.42
2018-07-14T06:07:54.075Z,4.65
2018-07-14T06:09:58.580Z,5.03
2018-07-14T06:12:03.119Z,4.03
2018-07-14T06:14:07.677Z,4.53
2018-07-14T06:16:12.046Z,4.57
2018-07-14T06:18:16.600Z,4.50
2018-07-14T06:20:21.039Z,4.57
2018-07-14T06:22:26.709Z,4.60
2018-07-14T06:24:31.313Z,4.10
2018-07-14T06:26:35.929Z,4.50
2018-07-14T06:28:42.049Z,3.70
2018-07-14T06:30:47.760Z,4.50
2018-07-14T06:32:52.270Z,4.58
2018-07-14T06:34:56.758Z,4.03
2018-07-14T06:37:01.164Z,4.13
2018-07-14T06:39:06.025Z,4.10
2018-07-14T06:41:10.449Z,4.00
2018-07-14T06:43:14.902Z,4.70
2018-07-14T06:45:19.405Z,4.70
2018-07-14T06:47:24.375Z,4.30
2018-07-14T06:49:28.850Z,4.27
2018-07-14T06:51:33.426Z,4.20
2018-07-14T06:53:40.245Z,4.20
2018-07-14T06:55:44.811Z,4.30
2018-07-14T06:57:49.338Z,4.40
2018-07-14T06:59:53.895Z,4.25
2018-07-14T07:01:58.557Z,3.70
2018-07-14T07:04:03.118Z,4.67
2018-07-14T07:06:07.881Z,4.03
2018-07-14T07:08:12.015Z,4.03
2018-07-14T07:10:16.242Z,4.10
2018-07-14T07:12:20.730Z,3.80
2018-07-14T07:14:25.229Z,4.07
2018-07-14T07:16:29.636Z,4.03
2018-07-14T07:18:34.072Z,4.47
2018-07-14T07:20:39.199Z,4.03
2018-07-14T07:22:43.658Z,4.03
2018-07-14T07:24:48.433Z,4.13
2018-07-14T07:26:56.212Z,4.23
2018-07-14T07:29:04.193Z,3.63
2018-07-14T07:31:14.755Z,3.95
2018-07-14T07:33:28.823Z,3.65
2018-07-14T07:35:34.442Z,3.63
2018-07-14T07:37:41.810Z,4.03
2018-07-14T07:39:46.393Z,3.67
2018-07-14T07:41:51.504Z,3.90
2018-07-14T07:43:56.861Z,3.73
2018-07-14T07:46:02.405Z,3.53
2018-07-14T07:48:06.955Z,3.12
2018-07-14T07:50:11.860Z,3.70
2018-07-14T07:52:16.771Z,3.40
2018-07-14T07:54:21.287Z,3.67
2018-07-14T07:56:25.915Z,3.43
2018-07-14T07:58:30.348Z,2.97
2018-07-14T08:00:38.243Z,3.05
2018-07-14T08:02:42.847Z,3.40
2018-07-14T08:04:47.426Z,3.52
2018-07-14T08:06:52.225Z,3.98
2018-07-14T08:08:59.018Z,3.77
2018-07-14T08:11:06.976Z,3.83
2018-07-14T08:13:11.594Z,4.12
2018-07-14T08:15:16.244Z,3.98
2018-07-14T08:17:20.707Z,4.00
2018-07-14T08:19:25.191Z,3.95
2018-07-14T08:21:29.713Z,4.83
2018-07-14T08:23:34.199Z,4.90
2018-07-14T08:25:38.720Z,5.05
2018-07-14T08:27:43.393Z,4.67
2018-07-14T08:29:48.505Z,4.83
2018-07-14T08:31:53.029Z,5.40
2018-07-14T08:34:01.470Z,5.13
2018-07-14T08:36:05.930Z,5.20
2018-07-14T08:38:10.509Z,5.22
2018-07-14T08:40:14.914Z,5.30
2018-07-14T08:42:20.249Z,5.28
2018-07-14T08:44:25.467Z,5.07
2018-07-14T08:46:30.107Z,4.95
2018-07-14T08:48:34.512Z,5.62
2018-07-14T08:50:38.982Z,5.77
2018-07-14T08:52:44.191Z,5.57
2018-07-14T08:54:48.674Z,7.03
2018-07-14T08:56:53.142Z,6.80
2018-07-14T08:58:57.625Z,6.53
2018-07-14T09:01:02.159Z,6.23
2018-07-14T09:03:07.098Z,6.77
2018-07-14T09:05:11.633Z,6.33
2018-07-14T09:07:16.095Z,5.35
2018-07-14T09:09:20.704Z,5.66
2018-07-14T09:11:25.530Z,5.70
2018-07-14T09:13:29.958Z,6.12
2018-07-14T09:15:34.419Z,5.80
2018-07-14T09:17:38.833Z,6.73
2018-07-14T09:19:43.650Z,5.92
2018-07-14T09:21:48.088Z,6.90
2018-07-14T09:23:52.618Z,5.83
2018-07-14T09:25:57.144Z,5.67
2018-07-14T09:28:01.584Z,6.78
2018-07-14T09:30:06.415Z,7.47
2018-07-14T09:32:10.847Z,6.72
2018-07-14T09:34:15.336Z,6.33
2018-07-14T09:36:21.095Z,6.43
2018-07-14T09:38:25.577Z,5.83
2018-07-14T09:40:30.088Z,6.00
2018-07-14T09:42:34.522Z,6.13
2018-07-14T09:44:38.974Z,6.97
2018-07-14T09:46:43.431Z,7.60
2018-07-14T09:48:48.031Z,7.00
2018-07-14T09:50:52.500Z,6.27
2018-07-14T09:52:56.982Z,6.23
2018-07-14T09:55:01.882Z,5.70
2018-07-14T09:57:06.894Z,6.08
2018-07-14T09:59:11.439Z,6.47
2018-07-14T10:01:18.127Z,6.40
2018-07-14T10:03:22.885Z,5.67
2018-07-14T10:05:27.954Z,6.15
2018-07-14T10:07:33.799Z,6.33
2018-07-14T10:09:38.336Z,6.47
2018-07-14T10:11:44.802Z,6.50
2018-07-14T10:13:50.462Z,5.80
2018-07-14T10:15:55.458Z,6.43
2018-07-14T10:18:00.028Z,6.78
2018-07-14T10:20:04.926Z,7.12
2018-07-14T10:22:09.832Z,6.72
2018-07-14T10:24:14.394Z,7.72
2018-07-14T10:26:18.873Z,6.87
2018-07-14T10:28:23.587Z,6.62
2018-07-14T10:30:28.050Z,7.45
2018-07-14T10:32:32.503Z,7.80
2018-07-14T10:34:36.946Z,7.92
2018-07-14T10:36:42.428Z,7.18
2018-07-14T10:38:47.330Z,6.76
2018-07-14T10:40:52.033Z,6.75
2018-07-14T10:42:56.699Z,7.67
2018-07-14T10:45:02.294Z,7.12
2018-07-14T10:47:07.336Z,6.28
2018-07-14T10:49:11.843Z,6.30
2018-07-14T10:51:16.373Z,6.40
2018-07-14T10:53:20.926Z,6.08
2018-07-14T10:55:25.471Z,5.92
2018-07-14T10:57:30.553Z,6.25
2018-07-14T10:59:35.017Z,5.97
2018-07-14T11:01:39.473Z,7.03
2018-07-14T11:03:43.942Z,6.25
2018-07-14T11:05:48.489Z,6.10
2018-07-14T11:07:52.955Z,6.17
2018-07-14T11:09:57.543Z,5.85
2018-07-14T11:12:03.609Z,6.47
2018-07-14T11:14:08.567Z,5.97
2018-07-14T11:16:13.247Z,5.80
2018-07-14T11:18:17.762Z,5.90
2018-07-14T11:20:22.648Z,6.50
2018-07-14T11:22:27.251Z,5.25
2018-07-14T11:24:32.011Z,5.72
2018-07-14T11:26:36.535Z,6.20
2018-07-14T11:28:41.113Z,6.17
2018-07-14T11:30:45.720Z,7.25
2018-07-14T11:32:50.123Z,6.87
2018-07-14T11:34:54.618Z,6.33
2018-07-14T11:36:59.134Z,6.33
2018-07-14T11:39:03.806Z,5.97
2018-07-14T11:41:08.277Z,5.57
2018-07-14T11:43:12.715Z,5.72
2018-07-14T11:45:17.155Z,6.28
2018-07-14T11:47:23.127Z,5.77
2018-07-14T11:49:27.566Z,5.24
2018-07-14T11:51:32.058Z,5.12
2018-07-14T11:53:36.618Z,5.23
2018-07-14T11:55:41.036Z,4.97
2018-07-14T11:57:45.471Z,4.67
2018-07-14T11:59:49.905Z,4.30
2018-07-14T12:01:57.754Z,4.95
2018-07-14T12:04:03.195Z,5.15
2018-07-14T12:06:07.799Z,5.32
2018-07-14T12:08:12.283Z,5.23
2018-07-14T12:10:17.335Z,4.85
2018-07-14T12:12:21.772Z,4.95
2018-07-14T12:14:26.228Z,5.37
2018-07-14T12:16:30.870Z,5.40
2018-07-14T12:18:38.399Z,3.90
2018-07-14T12:20:43.499Z,4.78
2018-07-14T12:22:47.978Z,5.60
2018-07-14T12:24:52.092Z,4.80
2018-07-14T12:26:56.233Z,5.00
2018-07-14T12:29:00.904Z,4.45
2018-07-14T12:31:05.381Z,4.55
2018-07-14T12:33:09.854Z,4.80
2018-07-14T12:35:14.278Z,4.87
2018-07-14T12:37:18.775Z,4.87
2018-07-14T12:39:23.329Z,4.95
2018-07-14T12:41:27.841Z,4.53
2018-07-14T12:43:32.514Z,4.70
2018-07-14T12:45:36.895Z,4.92
2018-07-14T12:47:41.081Z,5.12
2018-07-14T12:49:45.553Z,4.90
2018-07-14T12:51:50.022Z,4.42
2018-07-14T12:53:58.090Z,4.63
2018-07-14T12:56:03.893Z,4.67
2018-07-14T12:58:08.358Z,5.45
2018-07-14T13:00:12.896Z,4.73
2018-07-14T13:02:17.312Z,4.80
2018-07-14T13:04:22.666Z,5.30
2018-07-14T13:06:27.267Z,5.22
2018-07-14T13:08:31.719Z,5.30
2018-07-14T13:10:35.854Z,4.92
2018-07-14T13:12:40.327Z,4.87
2018-07-14T13:14:44.774Z,5.75
2018-07-14T13:16:49.482Z,5.07
2018-07-14T13:18:53.690Z,5.75
2018-07-14T13:20:58.142Z,4.90
2018-07-14T13:23:03.473Z,4.15
2018-07-14T13:25:08.007Z,4.42
2018-07-14T13:27:12.511Z,4.78
2018-07-14T13:29:16.946Z,4.23
2018-07-14T13:31:21.429Z,4.35
2018-07-14T13:33:25.955Z,4.33
2018-07-14T13:35:30.386Z,4.47
2018-07-14T13:37:34.826Z,4.23
2018-07-14T13:39:39.310Z,3.77
2018-07-14T13:41:44.225Z,4.40
2018-07-14T13:43:48.716Z,4.40
2018-07-14T13:45:53.277Z,3.90
2018-07-14T13:47:57.692Z,3.93
2018-07-14T13:50:02.135Z,4.47
2018-07-14T13:52:07.074Z,4.30
2018-07-14T13:54:11.698Z,3.80
2018-07-14T13:56:17.089Z,3.42
2018-07-14T13:58:22.958Z,2.77
2018-07-14T14:00:27.389Z,3.22
2018-07-14T14:02:33.649Z,2.95
2018-07-14T14:04:38.475Z,3.12
2018-07-14T14:06:44.345Z,2.98
2018-07-14T14:08:49.969Z,3.08
2018-07-14T14:10:56.338Z,3.60
2018-07-14T14:13:03.009Z,3.30
2018-07-14T14:15:08.238Z,2.87
2018-07-14T14:17:13.031Z,3.40
2018-07-14T14:19:18.500Z,2.87
2018-07-14T14:21:23.193Z,3.03
2018-07-14T14:23:27.350Z,3.05
2018-07-14T14:25:31.801Z,2.80
2018-07-14T14:27:36.296Z,2.47
2018-07-14T14:29:41.167Z,2.40
2018-07-14T14:31:46.794Z,2.95
2018-07-14T14:33:51.263Z,2.12
2018-07-14T14:35:55.743Z,2.72
2018-07-14T14:38:00.271Z,2.77
2018-07-14T14:40:05.015Z,3.00
2018-07-14T14:42:10.069Z,2.98
2018-07-14T14:44:14.592Z,2.47
2018-07-14T14:46:19.091Z,2.65
2018-07-14T14:48:23.260Z,2.85
2018-07-14T14:50:29.168Z,2.83
2018-07-14T14:52:33.609Z,2.57
2018-07-14T14:54:38.073Z,2.63
2018-07-14T14:56:42.526Z,3.08
2018-07-14T14:58:48.090Z,2.77
2018-07-14T15:00:52.598Z,2.52
2018-07-14T15:02:56.843Z,2.57
2018-07-14T15:05:01.346Z,2.75
2018-07-14T15:07:05.922Z,2.77
2018-07-14T15:09:11.935Z,2.15
2018-07-14T15:11:16.342Z,2.65
2018-07-14T15:13:20.791Z,2.10
2018-07-14T15:15:25.260Z,3.30
2018-07-14T15:17:30.050Z,2.10
2018-07-14T15:19:34.210Z,2.40
2018-07-14T15:21:38.753Z,2.70
2018-07-14T15:23:43.251Z,2.70
2018-07-14T15:25:48.409Z,1.98
2018-07-14T15:27:52.801Z,2.20
2018-07-14T15:29:57.294Z,2.70
2018-07-14T15:32:01.735Z,2.67
2018-07-14T15:34:06.530Z,2.77
2018-07-14T15:36:10.933Z,2.30
2018-07-14T15:38:15.439Z,2.58
2018-07-14T15:40:19.793Z,2.70
2018-07-14T15:42:24.190Z,3.10
2018-07-14T15:44:28.662Z,14.73
2018-07-14T15:46:33.083Z,3.67
2018-07-14T15:48:37.215Z,2.63
2018-07-14T15:50:41.658Z,2.80
2018-07-14T15:52:46.127Z,4.20
2018-07-14T15:54:50.566Z,2.98
2018-07-14T15:56:55.015Z,4.05
2018-07-14T15:58:59.474Z,2.70
2018-07-14T16:01:03.966Z,2.70
2018-07-14T16:03:08.419Z,2.70
2018-07-14T16:05:12.937Z,5.00
2018-07-14T16:07:17.345Z,3.25
2018-07-14T16:09:22.072Z,2.85
2018-07-14T16:11:26.511Z,3.12
2018-07-14T16:13:31.048Z,2.90
2018-07-14T16:15:35.483Z,2.70
2018-07-14T16:17:40.062Z,2.87
2018-07-14T16:19:45.063Z,2.70
2018-07-14T16:21:49.560Z,2.67
2018-07-14T16:23:54.064Z,2.25
2018-07-14T16:25:58.486Z,2.12
2018-07-14T16:28:03.024Z,2.37
2018-07-14T16:30:08.651Z,2.30
2018-07-14T16:32:13.114Z,2.45
2018-07-14T16:34:17.582Z,2.67
2018-07-14T16:36:21.741Z,2.60
2018-07-14T16:38:26.226Z,2.52
2018-07-14T16:40:30.699Z,3.00
2018-07-14T16:42:35.250Z,2.37
2018-07-14T16:44:39.732Z,2.45
2018-07-14T16:46:44.202Z,2.60
2018-07-14T16:48:48.461Z,2.48
2018-07-14T16:50:52.911Z,2.37
2018-07-14T16:52:57.387Z,3.77
2018-07-14T16:55:01.999Z,2.42
2018-07-14T16:57:06.519Z,2.70
2018-07-14T16:59:10.962Z,2.72
2018-07-14T17:01:15.428Z,2.20
2018-07-14T17:03:19.822Z,2.33
2018-07-14T17:05:24.341Z,2.90
2018-07-14T17:07:28.591Z,3.02
2018-07-14T17:09:33.051Z,2.80
2018-07-14T17:11:37.506Z,2.77
2018-07-14T17:13:41.934Z,2.03
2018-07-14T17:15:46.402Z,3.07
2018-07-14T17:17:50.859Z,2.83
2018-07-14T17:19:55.307Z,4.35
2018-07-14T17:21:59.774Z,3.10
2018-07-14T17:24:04.218Z,2.62
2018-07-14T17:26:08.898Z,3.05
2018-07-14T17:28:13.362Z,2.80
2018-07-14T17:30:17.606Z,2.72
2018-07-14T17:32:22.131Z,3.00
2018-07-14T17:34:26.577Z,2.47
2018-07-14T17:36:31.035Z,3.17
2018-07-14T17:38:35.566Z,2.85
2018-07-14T17:40:40.087Z,2.90
2018-07-14T17:42:44.555Z,2.58
2018-07-14T17:44:49.054Z,2.42
2018-07-14T17:46:53.504Z,2.70
2018-07-14T17:48:57.964Z,2.10
2018-07-14T17:51:02.423Z,3.10
2018-07-14T17:53:06.897Z,2.55
2018-07-14T17:55:11.338Z,2.90
2018-07-14T17:57:15.798Z,2.50
2018-07-14T17:59:20.274Z,2.77
2018-07-14T18:01:24.766Z,2.73
2018-07-14T18:03:29.265Z,3.07
2018-07-14T18:05:33.765Z,2.67
2018-07-14T18:07:38.190Z,2.43
2018-07-14T18:09:42.683Z,2.52
2018-07-14T18:11:47.135Z,2.40
2018-07-14T18:13:51.555Z,2.53
2018-07-14T18:15:56.068Z,2.60
2018-07-14T18:18:00.507Z,2.33
2018-07-14T18:20:05.254Z,2.65
2018-07-14T18:22:09.722Z,2.87
2018-07-14T18:24:14.183Z,2.47
2018-07-14T18:26:18.660Z,2.85
2018-07-14T18:28:23.125Z,2.63
2018-07-14T18:30:27.591Z,2.37
2018-07-14T18:32:32.022Z,2.83
2018-07-14T18:34:39.407Z,2.87
2018-07-14T18:36:45.274Z,2.37
2018-07-14T18:38:49.846Z,2.43
2018-07-14T18:40:54.295Z,2.83
2018-07-14T18:42:59.783Z,3.07
2018-07-14T18:45:07.714Z,2.45
2018-07-14T18:47:12.206Z,2.50
2018-07-14T18:49:16.738Z,2.90
2018-07-14T18:51:21.310Z,2.70
2018-07-14T18:53:26.046Z,2.73
2018-07-14T18:55:30.554Z,3.37
2018-07-14T18:57:34.974Z,3.47
2018-07-14T18:59:39.410Z,3.83
2018-07-14T19:01:43.927Z,4.23
2018-07-14T19:03:49.519Z,4.73
2018-07-14T19:05:54.396Z,6.48
2018-07-14T19:07:59.073Z,5.62
2018-07-14T19:10:04.961Z,5.67
2018-07-14T19:12:09.846Z,5.07
2018-07-14T19:14:14.254Z,5.10
2018-07-14T19:16:18.690Z,4.03
2018-07-14T19:18:23.253Z,4.30
2018-07-14T19:20:27.894Z,4.03
2018-07-14T19:22:32.371Z,3.70
2018-07-14T19:24:36.808Z,3.63
2018-07-14T19:26:41.327Z,3.17
2018-07-14T19:28:46.056Z,2.90
2018-07-14T19:30:50.538Z,3.10
2018-07-14T19:32:55.027Z,2.93
2018-07-14T19:34:59.466Z,3.05
2018-07-14T19:37:04.012Z,3.08
2018-07-14T19:39:08.796Z,3.33
2018-07-14T19:41:13.303Z,2.90
2018-07-14T19:43:18.515Z,2.97
2018-07-14T19:45:23.005Z,2.30
2018-07-14T19:47:27.441Z,2.53
2018-07-14T19:49:31.895Z,2.23
2018-07-14T19:51:36.382Z,2.63
2018-07-14T19:53:40.900Z,2.47
2018-07-14T19:55:45.754Z,2.58
2018-07-14T19:57:50.347Z,2.90
2018-07-14T19:59:54.798Z,2.60
2018-07-14T20:01:59.425Z,2.42
2018-07-14T20:04:04.130Z,2.55
2018-07-14T20:06:09.082Z,3.03
2018-07-14T20:08:13.884Z,2.57
2018-07-14T20:10:18.646Z,2.80
2018-07-14T20:12:23.964Z,2.72
2018-07-14T20:14:28.554Z,2.37
2018-07-14T20:16:33.452Z,2.60
2018-07-14T20:18:38.339Z,2.43
2018-07-14T20:20:42.922Z,2.55
2018-07-14T20:22:47.447Z,2.90
2018-07-14T20:24:52.074Z,3.10
2018-07-14T20:26:57.990Z,2.60
2018-07-14T20:29:02.899Z,2.80
2018-07-14T20:31:07.433Z,2.60
2018-07-14T20:33:12.922Z,2.80
2018-07-14T20:35:17.655Z,2.52
2018-07-14T20:37:23.093Z,2.95
2018-07-14T20:39:27.618Z,2.50
2018-07-14T20:41:32.181Z,2.57
2018-07-14T20:43:36.889Z,2.80
2018-07-14T20:45:43.045Z,2.50
2018-07-14T20:47:47.690Z,2.80
2018-07-14T20:49:52.652Z,2.90
2018-07-14T20:51:57.154Z,2.37
2018-07-14T20:54:01.622Z,2.42
2018-07-14T20:56:06.214Z,2.90
2018-07-14T20:58:10.740Z,2.50
2018-07-14T21:00:15.211Z,2.42
2018-07-14T21:02:19.389Z,2.73
2018-07-14T21:04:23.786Z,2.67
2018-07-14T21:06:28.281Z,2.90
2018-07-14T21:08:32.731Z,2.43
2018-07-14T21:10:37.166Z,2.70
2018-07-14T21:12:41.671Z,2.55
2018-07-14T21:14:46.169Z,2.67
2018-07-14T21:16:50.873Z,2.53
2018-07-14T21:18:55.306Z,2.80
2018-07-14T21:20:59.904Z,2.52
2018-07-14T21:23:04.322Z,2.72
2018-07-14T21:25:08.866Z,2.62
2018-07-14T21:27:13.434Z,2.47
2018-07-14T21:29:17.877Z,2.37
2018-07-14T21:31:22.326Z,2.63
2018-07-14T21:33:26.814Z,2.20
2018-07-14T21:35:31.356Z,2.63
2018-07-14T21:37:35.815Z,2.65
2018-07-14T21:39:40.302Z,2.52
2018-07-14T21:41:44.835Z,2.70
2018-07-14T21:43:49.388Z,2.80
2018-07-14T21:45:54.054Z,2.70
2018-07-14T21:48:02.482Z,2.70
2018-07-14T21:50:06.662Z,2.77
2018-07-14T21:52:14.240Z,2.83
2018-07-14T21:54:18.866Z,2.70
2018-07-14T21:56:23.402Z,2.70
2018-07-14T21:58:27.878Z,2.47
2018-07-14T22:00:37.687Z,2.93
2018-07-14T22:02:44.672Z,2.62
2018-07-14T22:04:51.035Z,2.80
2018-07-14T22:06:56.410Z,2.87
2018-07-14T22:09:02.071Z,2.50
2018-07-14T22:11:07.718Z,2.73
2018-07-14T22:13:12.191Z,2.77
2018-07-14T22:15:16.745Z,2.70
2018-07-14T22:17:21.227Z,2.60
2018-07-14T22:19:25.690Z,2.40
2018-07-14T22:21:30.237Z,2.87
2018-07-14T22:23:34.678Z,2.90
2018-07-14T22:25:39.143Z,2.42
2018-07-14T22:27:43.635Z,2.92
2018-07-14T22:29:48.070Z,2.73
2018-07-14T22:31:53.457Z,2.80
2018-07-14T22:33:57.964Z,2.60
2018-07-14T22:36:02.428Z,2.60
2018-07-14T22:38:07.322Z,2.50
2018-07-14T22:40:12.156Z,2.80
2018-07-14T22:42:16.358Z,2.70
2018-07-14T22:44:20.829Z,3.00
2018-07-14T22:46:25.222Z,2.83
2018-07-14T22:48:29.897Z,2.50
2018-07-14T22:50:34.340Z,2.70
2018-07-14T22:52:38.852Z,2.67
2018-07-14T22:54:43.292Z,2.87
2018-07-14T22:56:48.535Z,2.35
2018-07-14T22:58:52.939Z,2.77
2018-07-14T23:00:57.410Z,2.70
2018-07-14T23:03:02.079Z,2.73
2018-07-14T23:05:06.655Z,2.60
2018-07-14T23:07:11.291Z,2.50
2018-07-14T23:09:16.075Z,2.80
2018-07-14T23:11:20.602Z,2.83
2018-07-14T23:13:25.099Z,2.50
2018-07-14T23:15:29.590Z,2.40
2018-07-14T23:17:34.179Z,2.67
2018-07-14T23:19:38.407Z,2.52
2018-07-14T23:21:43.171Z,3.00
2018-07-14T23:23:47.930Z,2.83
2018-07-14T23:25:52.886Z,2.65
2018-07-14T23:27:57.342Z,2.60
2018-07-14T23:30:01.904Z,2.50
2018-07-14T23:32:06.776Z,2.27
2018-07-14T23:34:11.279Z,2.50
2018-07-14T23:36:15.831Z,2.47
2018-07-14T23:38:20.384Z,2.83
2018-07-14T23:40:26.636Z,2.73
2018-07-14T23:42:31.171Z,2.57
2018-07-14T23:44:36.338Z,2.70
2018-07-14T23:46:41.100Z,2.40
2018-07-14T23:48:47.130Z,2.50
2018-07-14T23:50:52.228Z,2.27
2018-07-14T23:52:56.328Z,2.87
2018-07-14T23:55:00.750Z,3.10
2018-07-14T23:57:05.843Z,2.40
2018-07-14T23:59:13.375Z,2.50
